Time;durP1;ratioP1;P1;durP2;ratioP2;P2;SDS_P1;SDS_P2;PMS_P1;PMS_P2;Temp;Humidity;BMP_temperature;BMP_pressure;BME280_temperature;BME280_humidity;BME280_pressure;Samples;Min_cycle;Max_cycle;Signal;HPM_P1;HPM_P2
2022/11/07 02:31:43;;;;;;;3.88;1.20;;;;;;;11.88;67.04;99624.63;5026708;28;20067;-74
2022/11/07 02:34:10;;;;;;;2.47;1.35;;;;;;;11.81;67.62;99627.16;5037680;28;20056;-74
2022/11/07 02:36:37;;;;;;;4.07;1.40;;;;;;;11.89;67.41;99623.50;5050715;28;20068;-74
2022/11/07 02:39:05;;;;;;;2.83;1.20;;;;;;;11.77;67.73;99627.03;5043107;28;20493;-74
2022/11/07 02:41:34;;;;;;;2.95;1.38;;;;;;;11.77;67.74;99638.19;5035156;28;20057;-74
2022/11/07 02:44:08;;;;;;;3.22;1.33;;;;;;;11.91;67.11;99649.09;5042033;28;20064;-74
2022/11/07 02:46:37;;;;;;;3.88;1.50;;;;;;;11.86;67.33;99611.00;5032161;28;20402;-74
2022/11/07 02:49:04;;;;;;;2.50;1.23;;;;;;;11.86;67.29;99627.75;5040217;28;20072;-73
2022/11/07 02:51:38;;;;;;;4.05;1.50;;;;;;;11.90;67.40;99623.16;5050867;28;20049;-74
2022/11/07 02:54:08;;;;;;;2.92;1.50;;;;;;;11.90;67.37;99634.31;5043020;28;20050;-74
2022/11/07 02:56:35;;;;;;;5.28;2.47;;;;;;;11.90;66.93;99616.75;5030779;28;20358;-74
2022/11/07 02:59:05;;;;;;;3.47;1.33;;;;;;;11.89;67.38;99624.31;5029689;28;20045;-74
2022/11/07 03:01:33;;;;;;;4.55;1.70;;;;;;;11.78;67.67;99626.69;5030323;28;20053;-74
2022/11/07 03:04:04;;;;;;;2.90;1.20;;;;;;;11.92;67.69;99634.78;5030101;28;20053;-73
2022/11/07 03:06:31;;;;;;;4.70;1.30;;;;;;;11.95;67.25;99636.09;5036076;28;20058;-74
2022/11/07 03:08:59;;;;;;;4.25;1.60;;;;;;;12.02;66.91;99618.78;5022311;28;20053;-74
2022/11/07 03:11:26;;;;;;;4.10;1.80;;;;;;;11.99;67.28;99625.88;5034290;28;20508;-76
2022/11/07 03:13:55;;;;;;;5.70;1.88;;;;;;;12.01;67.17;99637.50;5035572;28;20064;-73
2022/11/07 03:16:22;;;;;;;2.42;1.30;;;;;;;11.99;66.89;99645.41;5055385;28;20061;-74
2022/11/07 03:18:50;;;;;;;3.88;1.20;;;;;;;12.00;67.42;99666.56;5045486;28;20057;-74
2022/11/07 03:21:19;;;;;;;3.17;1.20;;;;;;;12.08;66.83;99642.53;5034477;28;20056;-74
2022/11/07 03:23:46;;;;;;;2.90;1.20;;;;;;;11.93;67.09;99641.19;5034304;28;20057;-74
2022/11/07 03:26:16;;;;;;;3.03;1.20;;;;;;;12.04;67.05;99638.78;5034534;28;20064;-74
2022/11/07 03:28:43;;;;;;;3.00;1.42;;;;;;;11.98;67.43;99652.13;5033456;28;20056;-78
2022/11/07 03:31:11;;;;;;;4.53;1.33;;;;;;;11.97;67.15;99644.94;5033864;28;20053;-77
2022/11/07 03:33:38;;;;;;;3.35;1.40;;;;;;;12.05;66.91;99651.56;5033768;28;20498;-78
2022/11/07 03:36:06;;;;;;;2.80;1.20;;;;;;;12.05;66.78;99644.00;5047136;28;20068;-78
2022/11/07 03:38:34;;;;;;;5.80;1.70;;;;;;;12.13;66.88;99650.66;5033719;28;20053;-78
2022/11/07 03:41:01;;;;;;;3.70;1.45;;;;;;;12.15;66.81;99643.56;5040039;28;20064;-78
2022/11/07 03:43:29;;;;;;;4.82;1.40;;;;;;;12.12;66.34;99632.28;5048845;28;20061;-77
2022/11/07 03:45:56;;;;;;;5.53;1.30;;;;;;;12.07;66.64;99644.47;5051564;28;20064;-77
2022/11/07 03:48:23;;;;;;;3.10;1.33;;;;;;;12.11;67.14;99645.41;5029076;28;20418;-77
2022/11/07 03:50:50;;;;;;;3.08;1.40;;;;;;;12.04;66.55;99638.78;5032532;28;20057;-77
2022/11/07 03:53:17;;;;;;;4.38;1.50;;;;;;;12.04;67.13;99645.19;5033501;28;20422;-78
2022/11/07 03:55:47;;;;;;;3.50;1.27;;;;;;;12.03;67.16;99649.13;5033072;28;20057;-78
2022/11/07 03:58:14;;;;;;;3.42;1.35;;;;;;;12.11;66.84;99648.22;5045248;28;20064;-78
2022/11/07 04:00:41;;;;;;;2.72;1.20;;;;;;;12.00;67.41;99643.44;5033588;28;20065;-78
2022/11/07 04:03:09;;;;;;;4.40;1.33;;;;;;;12.09;66.87;99658.91;5034982;28;20060;-77
2022/11/07 04:05:36;;;;;;;5.47;1.63;;;;;;;12.00;66.89;99655.41;5046696;28;20079;-77
2022/11/07 04:08:04;;;;;;;4.50;1.40;;;;;;;12.10;66.72;99657.75;5033286;28;20057;-77
2022/11/07 04:10:31;;;;;;;3.28;1.30;;;;;;;12.02;67.06;99658.66;5033635;28;20057;-78
2022/11/07 04:18:30;;;;;;;4.88;1.50;;;;;;;12.07;67.30;99666.81;5039075;28;20485;-77
2022/11/07 04:20:57;;;;;;;4.65;1.30;;;;;;;12.21;66.83;99674.06;5032219;28;20057;-77
2022/11/07 04:23:24;;;;;;;5.18;1.55;;;;;;;12.22;67.04;99681.28;5033335;28;20073;-78
2022/11/07 04:28:38;;;;;;;2.75;1.10;;;;;;;12.25;66.50;99661.06;5050102;28;20060;-77
2022/11/07 04:31:05;;;;;;;5.40;1.83;;;;;;;12.27;67.09;99661.53;5044379;28;20528;-77
2022/11/07 04:33:33;;;;;;;4.65;1.77;;;;;;;12.32;66.66;99666.88;5032471;28;20061;-78
2022/11/07 04:36:00;;;;;;;2.50;1.20;;;;;;;12.32;66.38;99680.84;5036068;28;20053;-78
2022/11/07 04:38:27;;;;;;;4.80;1.50;;;;;;;12.37;66.55;99664.69;5033938;28;20395;-78
2022/11/07 04:40:55;;;;;;;4.32;1.83;;;;;;;12.34;66.73;99667.34;5046406;28;20086;-78
2022/11/07 04:43:23;;;;;;;4.70;1.45;;;;;;;12.32;66.36;99664.88;5053323;28;20056;-78
2022/11/07 04:45:52;;;;;;;3.42;1.52;;;;;;;12.25;66.69;99667.44;5040890;28;20053;-78
2022/11/07 04:48:19;;;;;;;3.58;1.42;;;;;;;12.22;66.88;99670.09;5037592;28;20053;-78
2022/11/07 04:50:47;;;;;;;3.28;1.50;;;;;;;12.27;66.73;99658.72;5052091;28;20401;-78
2022/11/07 04:53:16;;;;;;;3.95;1.42;;;;;;;12.25;66.72;99663.84;5038403;28;20069;-78
2022/11/07 04:55:44;;;;;;;4.30;1.67;;;;;;;12.26;66.88;99652.31;5044370;28;20061;-78
2022/11/07 04:58:11;;;;;;;5.68;1.35;;;;;;;12.17;66.94;99646.81;5032971;28;20180;-78
2022/11/07 05:00:39;;;;;;;4.13;1.48;;;;;;;12.15;66.39;99651.94;5032229;28;20061;-78
2022/11/07 05:03:08;;;;;;;4.22;1.73;;;;;;;12.12;67.06;99652.66;5032817;28;20056;-78
2022/11/07 05:05:36;;;;;;;9.77;2.00;;;;;;;12.17;66.96;99660.78;5044329;28;20576;-77
2022/11/07 05:08:03;;;;;;;4.13;1.63;;;;;;;12.13;66.75;99665.44;5033555;28;20053;-78
2022/11/07 05:10:31;;;;;;;3.70;1.60;;;;;;;12.06;67.37;99665.19;5051071;28;20409;-79
2022/11/07 05:12:58;;;;;;;5.40;1.58;;;;;;;12.16;66.85;99653.59;5049041;28;20064;-78
2022/11/07 05:15:25;;;;;;;5.05;1.75;;;;;;;12.11;67.11;99662.16;5037688;28;20064;-77
2022/11/07 05:17:52;;;;;;;4.18;1.63;;;;;;;12.05;67.22;99657.16;5032242;28;20073;-77
2022/11/07 05:20:29;;;;;;;3.47;1.40;;;;;;;12.15;66.84;99657.53;5030879;28;20071;-77
2022/11/07 05:23:16;;;;;;;3.63;1.58;;;;;;;11.97;67.82;99662.50;5031887;28;20049;-77
2022/11/07 05:25:45;;;;;;;6.38;1.55;;;;;;;12.15;67.61;99653.94;5031571;28;20076;-77
2022/11/07 05:28:14;;;;;;;6.28;1.40;;;;;;;12.09;67.32;99653.31;5042161;28;20058;-77
2022/11/07 05:30:42;;;;;;;5.30;1.55;;;;;;;12.07;67.45;99655.63;5042082;28;20079;-77
2022/11/07 05:33:11;;;;;;;2.67;1.35;;;;;;;11.90;68.08;99651.06;5046479;28;20422;-77
2022/11/07 05:35:39;;;;;;;6.10;2.38;;;;;;;11.98;67.89;99655.72;5036546;28;20057;-76
2022/11/07 05:38:07;;;;;;;4.22;1.90;;;;;;;12.02;68.12;99657.84;5024330;28;20065;-77
2022/11/07 05:40:35;;;;;;;3.72;1.50;;;;;;;12.01;67.31;99657.03;5032777;28;20489;-77
2022/11/07 05:43:04;;;;;;;5.10;1.77;;;;;;;11.92;67.86;99675.84;5043916;28;20159;-77
2022/11/07 05:45:33;;;;;;;6.80;2.03;;;;;;;11.95;68.50;99658.41;5042484;28;20064;-77
2022/11/07 05:48:02;;;;;;;5.00;1.70;;;;;;;11.95;68.23;99661.22;5033504;28;20927;-77
2022/11/07 05:50:29;;;;;;;7.32;1.83;;;;;;;11.94;68.16;99665.13;5048589;28;20057;-77
2022/11/07 05:52:58;;;;;;;5.00;1.60;;;;;;;11.85;68.51;99669.97;5051896;28;20091;-78
2022/11/07 05:55:25;;;;;;;7.38;2.28;;;;;;;11.97;68.17;99670.06;5045732;28;20056;-78
2022/11/07 05:57:53;;;;;;;6.25;1.55;;;;;;;12.05;67.91;99674.72;5039985;28;20064;-78
2022/11/07 06:00:20;;;;;;;3.80;1.58;;;;;;;12.09;67.74;99684.03;5031605;28;20060;-78
2022/11/07 06:02:54;;;;;;;4.60;1.95;;;;;;;12.09;66.88;99686.81;5048135;28;20057;-79
2022/11/07 06:05:22;;;;;;;3.20;1.50;;;;;;;12.08;67.50;99685.19;5047474;28;20061;-78
2022/11/07 06:07:49;;;;;;;6.60;2.47;;;;;;;12.12;67.54;99683.34;5046612;28;20057;-78
2022/11/07 06:10:18;;;;;;;4.43;1.40;;;;;;;12.02;67.45;99694.13;5030680;28;20064;-78
2022/11/07 06:12:46;;;;;;;4.60;1.88;;;;;;;12.06;67.67;99689.50;5040806;28;20057;-78
2022/11/07 06:15:15;;;;;;;6.07;1.70;;;;;;;12.13;67.34;99689.75;5046916;28;20049;-78
2022/11/07 06:17:42;;;;;;;6.57;1.90;;;;;;;12.21;67.20;99683.25;5028223;28;20053;-76
2022/11/07 06:20:10;;;;;;;5.72;2.13;;;;;;;12.12;67.03;99686.16;5023871;28;20064;-77
2022/11/07 06:22:38;;;;;;;5.85;2.10;;;;;;;12.12;66.83;99694.53;5025422;28;20052;-76
2022/11/07 06:25:05;;;;;;;6.13;1.83;;;;;;;12.20;67.31;99678.84;5039983;28;20079;-77
2022/11/07 06:27:34;;;;;;;3.00;1.40;;;;;;;12.11;67.37;99689.28;5031693;28;20056;-77
2022/11/07 06:30:01;;;;;;;4.20;1.60;;;;;;;12.11;67.28;99703.22;5029039;28;20060;-76
2022/11/07 06:32:29;;;;;;;4.20;1.70;;;;;;;12.08;67.19;99698.34;5035357;28;20053;-77
2022/11/07 06:34:56;;;;;;;4.78;1.70;;;;;;;12.13;67.17;99710.09;5038018;28;20062;-77
2022/11/07 06:37:26;;;;;;;5.03;1.52;;;;;;;12.16;66.72;99708.63;5027200;28;20068;-77
2022/11/07 06:39:53;;;;;;;7.90;3.13;;;;;;;12.27;67.02;99701.44;5023127;28;20057;-76
2022/11/07 06:42:20;;;;;;;5.50;1.88;;;;;;;12.33;65.99;99714.00;5025300;28;20057;-77
2022/11/07 06:44:49;;;;;;;3.85;1.85;;;;;;;12.45;65.46;99710.44;5027094;28;20049;-77
2022/11/07 06:47:16;;;;;;;3.63;1.42;;;;;;;12.37;66.13;99723.31;5029138;28;20057;-76
2022/11/07 06:49:43;;;;;;;7.05;1.90;;;;;;;12.30;68.63;99714.69;5037367;28;20421;-74
2022/11/07 06:52:11;;;;;;;6.28;1.77;;;;;;;12.48;69.99;99708.94;5029785;28;20049;-75
2022/11/07 06:54:38;;;;;;;5.60;1.60;;;;;;;12.49;67.93;99710.53;5028586;28;20436;-75
2022/11/07 06:57:05;;;;;;;7.47;2.08;;;;;;;12.56;66.04;99728.38;5034099;28;20053;-80
2022/11/07 06:59:32;;;;;;;7.53;1.85;;;;;;;12.63;65.01;99710.22;5025926;28;20045;-81
2022/11/07 07:02:02;;;;;;;4.75;1.55;;;;;;;12.77;64.66;99705.13;5027837;28;20064;-78
2022/11/07 07:04:29;;;;;;;6.00;1.90;;;;;;;12.92;64.23;99718.41;5035696;28;20064;-78
2022/11/07 07:06:57;;;;;;;5.00;1.88;;;;;;;12.92;64.87;99712.81;5035846;28;20068;-81
2022/11/07 07:09:24;;;;;;;4.95;2.05;;;;;;;12.87;65.01;99721.44;5036114;28;20082;-79
2022/11/07 07:11:51;;;;;;;6.30;1.85;;;;;;;12.94;63.82;99721.66;5037154;28;20525;-80
2022/11/07 07:14:19;;;;;;;5.00;2.45;;;;;;;13.09;63.60;99719.34;5047462;28;20053;-81
2022/11/07 07:16:46;;;;;;;5.70;1.27;;;;;;;13.03;63.38;99726.34;5050227;28;20045;-79
2022/11/07 07:19:15;;;;;;;6.85;1.60;;;;;;;13.15;63.58;99721.56;5057147;28;20063;-80
2022/11/07 07:21:42;;;;;;;4.88;1.63;;;;;;;13.10;64.08;99720.97;5058982;28;20045;-79
2022/11/07 07:24:09;;;;;;;6.72;1.85;;;;;;;13.11;62.79;99711.44;5059838;28;20059;-79
2022/11/07 07:26:37;;;;;;;6.55;1.80;;;;;;;13.38;62.24;99726.69;5056250;28;20059;-79
2022/11/07 07:29:04;;;;;;;5.60;2.08;;;;;;;13.37;62.64;99727.84;5065532;28;20055;-81
2022/11/07 07:31:32;;;;;;;6.22;2.03;;;;;;;13.25;63.43;99737.06;5057356;28;20051;-81
2022/11/07 07:33:59;;;;;;;5.47;2.20;;;;;;;13.41;62.86;99725.97;5057174;28;20037;-81
2022/11/07 07:36:28;;;;;;;4.78;1.33;;;;;;;13.34;62.37;99725.78;5060350;28;20049;-78
2022/11/07 07:38:56;;;;;;;4.90;1.83;;;;;;;13.30;62.38;99736.84;5059026;28;20032;-80
2022/11/07 07:41:23;;;;;;;4.45;1.60;;;;;;;13.39;62.32;99734.72;5056227;28;20040;-77
2022/11/07 07:43:50;;;;;;;5.55;1.75;;;;;;;13.26;65.13;99744.25;5058132;28;20044;-74
2022/11/07 07:46:22;;;;;;;4.55;1.63;;;;;;;13.58;65.45;99736.09;5058464;28;20060;-74
2022/11/07 07:48:49;;;;;;;5.82;1.80;;;;;;;13.64;64.33;99731.06;5048468;28;20067;-75
2022/11/07 07:51:16;;;;;;;5.45;1.75;;;;;;;13.81;62.83;99748.38;5035369;28;20058;-79
2022/11/07 07:53:45;;;;;;;4.03;1.42;;;;;;;13.86;60.71;99743.72;5030448;28;20629;-79
2022/11/07 07:56:13;;;;;;;5.05;1.70;;;;;;;13.71;61.05;99734.91;5034420;28;20053;-77
2022/11/07 07:58:41;;;;;;;5.68;1.75;;;;;;;13.85;60.92;99747.69;5025341;28;20080;-78
2022/11/07 08:01:09;;;;;;;6.45;2.28;;;;;;;13.89;62.06;99743.81;5012047;28;20070;-79
2022/11/07 08:03:37;;;;;;;7.60;2.10;;;;;;;13.86;62.06;99743.72;5025681;28;20144;-79
2022/11/07 08:06:05;;;;;;;4.75;1.75;;;;;;;13.94;61.77;99751.16;5005762;28;20066;-78
2022/11/07 08:08:32;;;;;;;9.60;1.75;;;;;;;13.93;61.75;99752.34;5013952;28;20072;-78
2022/11/07 08:11:07;;;;;;;10.82;2.10;;;;;;;13.92;61.86;99742.28;5017558;28;20054;-78
2022/11/07 08:13:34;;;;;;;6.88;1.70;;;;;;;13.99;61.53;99743.34;5013319;28;20394;-77
2022/11/07 08:16:04;;;;;;;4.13;1.65;;;;;;;14.05;61.20;99741.09;5032117;28;20060;-77
2022/11/07 08:18:31;;;;;;;7.85;1.70;;;;;;;14.03;60.83;99749.03;5035473;28;20079;-77
2022/11/07 08:20:59;;;;;;;5.68;1.65;;;;;;;14.20;61.50;99747.94;5029892;28;20068;-77
2022/11/07 08:23:27;;;;;;;5.07;1.70;;;;;;;14.04;61.07;99769.44;5029432;28;20494;-78
2022/11/07 08:25:56;;;;;;;4.20;1.70;;;;;;;14.25;61.20;99741.25;5027287;28;20061;-77
2022/11/07 08:28:26;;;;;;;4.80;1.75;;;;;;;14.52;61.04;99768.41;5034661;28;20057;-77
2022/11/07 08:30:57;;;;;;;4.90;1.60;;;;;;;14.76;60.34;99750.69;5023284;28;20062;-77
2022/11/07 08:33:25;;;;;;;4.80;1.63;;;;;;;15.12;58.90;99747.94;5028449;28;20053;-77
2022/11/07 08:35:54;;;;;;;8.70;2.13;;;;;;;15.22;58.75;99784.72;5034697;28;20049;-77
2022/11/07 08:38:21;;;;;;;8.77;1.60;;;;;;;15.42;57.87;99756.72;5018169;28;20406;-78
2022/11/07 08:40:50;;;;;;;5.75;1.80;;;;;;;15.55;57.69;99763.03;5031099;28;20060;-78
2022/11/07 08:43:17;;;;;;;6.88;1.65;;;;;;;15.28;58.55;99773.19;5032174;28;20061;-78
2022/11/07 08:45:47;;;;;;;6.25;2.08;;;;;;;15.21;59.09;99769.03;5033429;28;20053;-78
2022/11/07 08:48:15;;;;;;;5.10;1.48;;;;;;;15.22;57.92;99772.66;5025520;28;20062;-80
2022/11/07 08:50:43;;;;;;;5.63;1.80;;;;;;;15.00;59.53;99774.13;5030747;28;20125;-79
2022/11/07 08:53:11;;;;;;;4.57;1.48;;;;;;;14.82;60.02;99785.69;5032457;28;20057;-77
2022/11/07 08:55:38;;;;;;;5.45;1.80;;;;;;;14.89;59.94;99775.81;5032514;28;20398;-79
2022/11/07 08:58:08;;;;;;;4.65;1.30;;;;;;;14.83;60.83;99789.31;5033831;28;20053;-79
2022/11/07 09:00:36;;;;;;;6.53;1.45;;;;;;;14.93;59.67;99771.97;5031605;28;20060;-79
2022/11/07 09:03:07;;;;;;;6.82;1.67;;;;;;;14.94;60.13;99779.19;5032526;28;20057;-79
2022/11/07 09:05:34;;;;;;;5.25;1.73;;;;;;;14.89;60.26;99779.47;5032928;28;20061;-78
2022/11/07 09:08:01;;;;;;;5.40;2.08;;;;;;;14.88;61.14;99789.03;5032356;28;20061;-79
2022/11/07 09:10:29;;;;;;;5.22;1.70;;;;;;;14.96;60.69;99778.81;5031152;28;20505;-78
2022/11/07 09:12:56;;;;;;;5.85;1.70;;;;;;;15.12;60.63;99770.41;5030135;28;20087;-78
2022/11/07 09:15:23;;;;;;;5.20;1.95;;;;;;;15.17;59.81;99784.16;5031529;28;20064;-77
2022/11/07 09:17:51;;;;;;;6.95;1.92;;;;;;;15.14;60.86;99819.38;5030478;28;20362;-76
2022/11/07 09:20:19;;;;;;;4.72;1.48;;;;;;;15.12;60.77;99787.22;5031700;28;20057;-78
2022/11/07 09:22:47;;;;;;;4.15;1.25;;;;;;;15.13;60.36;99775.66;5028104;28;20060;-78
2022/11/07 09:25:14;;;;;;;3.38;1.20;;;;;;;15.12;59.93;99784.41;5013615;28;20056;-78
2022/11/07 09:27:41;;;;;;;5.60;1.67;;;;;;;14.94;60.92;99792.41;5030559;28;20060;-78
2022/11/07 09:30:10;;;;;;;3.42;1.30;;;;;;;15.06;61.59;99789.50;5029744;28;20057;-78
2022/11/07 09:32:37;;;;;;;4.03;1.55;;;;;;;15.16;61.49;99793.75;5027741;28;20545;-78
2022/11/07 09:35:05;;;;;;;5.78;1.42;;;;;;;15.02;61.66;99792.22;5029859;28;20060;-79
2022/11/07 09:37:34;;;;;;;3.63;1.17;;;;;;;15.07;61.79;99799.53;5031913;28;20061;-77
2022/11/07 09:40:01;;;;;;;5.53;1.60;;;;;;;15.15;60.66;99794.94;5030976;28;20482;-78
2022/11/07 09:42:39;;;;;;;7.22;1.65;;;;;;;15.13;61.04;99798.09;5026827;28;20057;-78
2022/11/07 09:45:13;;;;;;;3.95;1.55;;;;;;;15.27;59.94;99803.25;5032602;28;20092;-78
2022/11/07 09:47:44;;;;;;;4.65;1.58;;;;;;;15.24;60.98;99806.78;5028118;28;20057;-77
2022/11/07 09:50:15;;;;;;;4.55;1.45;;;;;;;15.14;60.85;99801.69;5026441;28;20077;-76
2022/11/07 09:52:49;;;;;;;6.13;1.60;;;;;;;15.06;60.94;99811.94;5026444;28;20049;-76
2022/11/07 09:55:20;;;;;;;5.10;1.67;;;;;;;15.27;60.87;99814.47;5030929;28;20064;-76
2022/11/07 09:57:50;;;;;;;5.75;1.48;;;;;;;15.25;60.60;99814.03;5029901;28;20049;-76
2022/11/07 10:00:18;;;;;;;;;;;;;;;15.27;60.54;99822.91;5030241;28;20061;-76
2022/11/07 10:02:47;;;;;;;4.78;1.80;;;;;;;15.30;60.55;99841.81;5029398;28;19921;-78
2022/11/07 10:05:18;;;;;;;5.38;1.65;;;;;;;15.04;60.92;99828.31;5032117;28;20053;-79
2022/11/07 10:08:06;;;;;;;5.45;1.50;;;;;;;15.05;61.46;99829.13;5031283;28;20057;-79
2022/11/07 10:10:42;;;;;;;5.63;1.77;;;;;;;15.23;61.20;99836.84;5040887;28;20061;-79
2022/11/07 10:13:42;;;;;;;6.13;2.42;;;;;;;15.35;60.98;99830.31;5021529;28;20390;-78
2022/11/07 10:16:21;;;;;;;4.20;1.70;;;;;;;15.27;60.73;99830.50;5021134;28;20061;-79
2022/11/07 10:19:05;;;;;;;4.22;1.70;;;;;;;15.02;62.07;99839.88;5031580;28;20068;-79
2022/11/07 10:21:43;;;;;;;7.43;1.80;;;;;;;14.98;61.86;99830.56;5018372;28;20061;-78
2022/11/07 10:24:28;;;;;;;5.13;1.52;;;;;;;15.09;61.76;99847.69;5032667;28;20072;-79
2022/11/07 10:26:56;;;;;;;5.20;1.50;;;;;;;15.26;61.87;99843.69;5032107;28;20053;-79
2022/11/07 10:29:27;;;;;;;7.50;1.80;;;;;;;15.25;61.77;99846.91;5029769;28;20073;-80
2022/11/07 10:32:00;;;;;;;3.42;1.45;;;;;;;15.06;63.71;99845.59;5019803;28;20072;-79
2022/11/07 10:34:34;;;;;;;4.53;1.50;;;;;;;15.11;64.99;99841.72;5029423;28;20053;-79
2022/11/07 10:37:02;;;;;;;4.65;1.40;;;;;;;15.02;65.48;99858.72;5031226;28;20061;-80
2022/11/07 10:39:31;;;;;;;5.40;1.38;;;;;;;14.97;65.73;99871.03;5028951;28;20053;-79
2022/11/07 10:42:03;;;;;;;4.40;1.42;;;;;;;14.99;66.26;99851.84;5030841;28;20053;-78
2022/11/07 10:44:32;;;;;;;3.55;1.30;;;;;;;14.81;67.71;99864.56;5030210;28;20046;-79
2022/11/07 10:46:59;;;;;;;6.40;1.50;;;;;;;14.80;66.78;99868.50;5029982;28;20053;-77
2022/11/07 10:49:28;;;;;;;3.13;1.20;;;;;;;14.86;67.22;99855.88;5027920;28;20062;-79
2022/11/07 10:52:06;;;;;;;4.88;1.42;;;;;;;14.84;68.53;99860.22;5027171;28;20050;-79
2022/11/07 10:54:35;;;;;;;3.63;1.48;;;;;;;14.70;68.57;99860.63;5028993;28;20049;-79
2022/11/07 10:57:06;;;;;;;5.10;1.65;;;;;;;14.78;69.06;99857.69;5022729;28;20053;-78
2022/11/07 10:59:36;;;;;;;5.63;1.48;;;;;;;14.64;70.77;99862.06;5027952;28;20061;-79
2022/11/07 11:02:19;;;;;;;4.25;1.55;;;;;;;14.46;71.00;99858.72;5018662;28;20069;-77
2022/11/07 11:04:49;;;;;;;5.70;1.67;;;;;;;14.66;71.94;99857.72;5026358;28;20076;-78
2022/11/07 11:07:17;;;;;;;4.63;1.58;;;;;;;14.68;70.87;99858.19;5027940;28;20057;-78
2022/11/07 11:09:51;;;;;;;6.20;1.98;;;;;;;14.70;71.24;99855.00;5025133;28;20056;-79
2022/11/07 11:12:25;;;;;;;5.10;1.70;;;;;;;14.76;71.55;99853.59;5020514;28;20053;-78
2022/11/07 11:15:04;;;;;;;4.25;1.65;;;;;;;14.64;71.12;99857.28;5023450;28;20076;-80
2022/11/07 11:17:32;;;;;;;3.70;1.98;;;;;;;14.69;71.21;99857.00;5027872;28;20074;-80
2022/11/07 11:19:59;;;;;;;4.88;1.55;;;;;;;14.58;72.25;99845.50;5027848;28;20505;-78
2022/11/07 11:22:27;;;;;;;8.30;2.30;;;;;;;14.60;71.68;99840.34;5028680;28;20060;-79
2022/11/07 11:25:03;;;;;;;4.65;1.60;;;;;;;14.71;70.75;99843.44;5028200;28;20064;-78
2022/11/07 11:27:34;;;;;;;4.80;1.70;;;;;;;14.74;71.13;99828.72;5029091;28;20061;-79
2022/11/07 11:30:07;;;;;;;4.53;1.70;;;;;;;14.65;70.07;99839.28;5030529;28;20057;-79
2022/11/07 11:32:39;;;;;;;5.18;1.80;;;;;;;14.85;70.02;99829.03;5011284;28;20058;-82
2022/11/07 11:35:19;;;;;;;5.90;1.85;;;;;;;14.90;70.12;99828.75;5015514;28;20459;-78
2022/11/07 11:37:56;;;;;;;5.63;1.95;;;;;;;15.11;69.02;99827.69;5016070;28;20418;-80
2022/11/07 11:40:25;;;;;;;4.35;2.35;;;;;;;15.14;68.30;99829.75;5011024;28;20053;-80
2022/11/07 11:42:59;;;;;;;6.03;2.20;;;;;;;15.27;68.10;99822.91;5011473;28;20414;-81
2022/11/07 11:45:34;;;;;;;4.72;1.85;;;;;;;15.47;66.72;99820.16;5006126;28;20058;-81
2022/11/07 11:48:10;;;;;;;6.25;1.95;;;;;;;15.51;67.12;99815.47;5014761;28;20065;-81
2022/11/07 11:50:44;;;;;;;7.07;1.80;;;;;;;15.48;65.66;99821.81;5013131;28;20049;-81
2022/11/07 11:53:16;;;;;;;5.30;1.85;;;;;;;15.58;65.55;99818.41;5015291;28;20092;-81
2022/11/07 11:55:55;;;;;;;6.28;1.70;;;;;;;15.55;65.94;99810.75;5012278;28;20475;-81
2022/11/07 11:58:39;;;;;;;3.88;1.40;;;;;;;15.57;65.13;99809.19;5005096;28;20054;-80
2022/11/07 12:01:17;;;;;;;3.95;2.00;;;;;;;15.40;66.23;99829.22;5011317;28;20066;-81
2022/11/07 12:03:57;;;;;;;4.75;2.00;;;;;;;15.59;65.20;99825.69;5006396;28;20069;-79
2022/11/07 12:06:28;;;;;;;;;;;;;;;15.61;65.27;99810.09;5015295;28;20050;-79
2022/11/07 12:09:19;;;;;;;4.28;2.08;;;;;;;15.91;64.24;99811.59;5007849;28;19928;-78
2022/11/07 12:12:00;;;;;;;4.70;1.75;;;;;;;16.27;62.68;99823.63;5005165;28;20054;-78
2022/11/07 12:14:47;;;;;;;4.57;1.75;;;;;;;16.33;62.53;99822.94;5011354;28;20506;-78
2022/11/07 12:17:21;;;;;;;4.72;1.70;;;;;;;16.44;62.50;99825.97;5008568;28;20061;-78
2022/11/07 12:19:55;;;;;;;9.52;2.47;;;;;;;16.21;62.54;99825.91;5007302;28;20054;-79
2022/11/07 12:22:33;;;;;;;6.05;1.65;;;;;;;16.35;62.21;99823.41;5003554;28;20413;-81
2022/11/07 12:25:08;;;;;;;5.47;1.75;;;;;;;16.21;62.89;99829.53;5012991;28;20054;-78
2022/11/07 12:27:45;;;;;;;4.97;1.80;;;;;;;16.17;62.14;99831.47;5011080;28;20069;-80
2022/11/07 12:30:21;;;;;;;7.50;2.08;;;;;;;16.00;62.18;99835.50;5004542;28;20054;-79
2022/11/07 12:33:03;;;;;;;4.50;1.45;;;;;;;15.99;62.83;99821.81;5031921;28;20064;-79
2022/11/07 12:35:42;;;;;;;5.47;1.70;;;;;;;16.02;62.54;99823.88;5026714;28;20049;-78
2022/11/07 12:38:40;;;;;;;6.75;1.70;;;;;;;16.16;61.94;99824.19;5013147;28;20060;-79
2022/11/07 12:41:19;;;;;;;4.67;2.03;;;;;;;16.13;61.43;99818.53;5024439;28;20088;-80
2022/11/07 12:44:00;;;;;;;6.60;2.03;;;;;;;16.05;62.01;99816.75;5031431;28;20050;-81
2022/11/07 12:46:44;;;;;;;2.65;1.35;;;;;;;16.06;61.73;99816.34;5031655;28;20057;-81
2022/11/07 12:49:30;;;;;;;6.43;1.50;;;;;;;15.97;62.61;99821.38;5016817;28;20058;-79
2022/11/07 12:52:09;;;;;;;5.03;1.92;;;;;;;16.13;62.54;99815.72;5029611;28;20058;-80
2022/11/07 12:54:42;;;;;;;4.07;1.60;;;;;;;16.11;61.59;99823.69;5023378;28;20494;-79
2022/11/07 12:57:17;;;;;;;4.75;1.50;;;;;;;16.51;60.09;99814.91;5013753;28;20083;-78
2022/11/07 12:59:51;;;;;;;5.70;1.40;;;;;;;16.52;59.16;99808.06;5014192;28;20050;-78
2022/11/07 13:02:28;;;;;;;5.28;2.10;;;;;;;16.92;58.39;99820.13;5017168;28;20061;-78
2022/11/07 13:05:03;;;;;;;3.00;2.08;;;;;;;17.54;57.40;99803.09;5021635;28;20104;-79
2022/11/07 13:07:40;;;;;;;5.65;2.10;;;;;;;18.05;54.90;99797.84;5013813;28;20058;-80
2022/11/07 13:10:15;;;;;;;4.90;3.13;;;;;;;18.59;53.33;99797.72;5026571;28;20061;-79
2022/11/07 13:12:50;;;;;;;3.72;2.90;;;;;;;19.03;51.52;99809.09;5033927;28;20057;-77
2022/11/07 13:15:20;;;;;;;5.32;3.53;;;;;;;19.17;50.98;99799.13;5030531;28;20053;-79
2022/11/07 13:17:47;;;;;;;5.68;4.10;;;;;;;19.96;50.09;99802.56;5029789;28;20057;-80
2022/11/07 13:20:30;;;;;;;4.95;4.30;;;;;;;20.52;48.01;99800.44;5017917;28;20062;-79
2022/11/07 13:23:00;;;;;;;5.38;1.70;;;;;;;20.03;48.67;99803.44;5018489;28;20506;-80
2022/11/07 13:25:30;;;;;;;2.92;1.70;;;;;;;19.48;49.53;99809.06;5030828;28;20084;-79
2022/11/07 13:28:23;;;;;;;4.63;2.58;;;;;;;19.76;49.27;99814.16;5031477;28;20060;-80
2022/11/07 13:30:58;;;;;;;3.47;1.50;;;;;;;19.84;49.61;99812.19;5027245;28;20418;-78
2022/11/07 13:33:28;;;;;;;2.80;1.17;;;;;;;19.52;50.09;99809.09;5028564;28;20053;-79
2022/11/07 13:35:58;;;;;;;3.45;1.48;;;;;;;19.23;50.29;99809.69;5032341;28;20049;-80
2022/11/07 13:38:27;;;;;;;4.28;1.42;;;;;;;18.78;51.16;99799.53;5032695;28;20493;-79
2022/11/07 13:41:00;;;;;;;3.50;1.30;;;;;;;18.31;52.70;99815.06;5031639;28;20060;-80
2022/11/07 13:43:38;;;;;;;3.33;1.20;;;;;;;18.45;52.20;99803.97;5033004;28;20065;-80
2022/11/07 13:46:11;;;;;;;4.25;3.78;;;;;;;18.74;52.02;99798.69;5031191;28;20053;-80
2022/11/07 13:48:48;;;;;;;4.43;1.20;;;;;;;18.63;51.76;99798.56;5032443;28;20061;-80
2022/11/07 13:51:20;;;;;;;4.15;1.98;;;;;;;18.57;52.04;99800.91;5030874;28;20065;-80
2022/11/07 13:54:03;;;;;;;6.18;3.50;;;;;;;18.51;52.08;99802.44;5032132;28;20057;-80
2022/11/07 13:56:38;;;;;;;5.47;4.60;;;;;;;18.89;50.98;99800.47;5027641;28;20052;-80
2022/11/07 13:59:13;;;;;;;4.07;2.20;;;;;;;19.18;50.40;99806.41;5030769;28;20060;-80
2022/11/07 14:01:44;;;;;;;3.92;2.30;;;;;;;19.26;50.01;99816.56;5027852;28;20418;-80
2022/11/07 14:04:16;;;;;;;3.20;1.13;;;;;;;18.99;49.48;99818.72;5023076;28;20148;-80
2022/11/07 14:06:46;;;;;;;4.93;1.55;;;;;;;18.50;50.89;99820.56;5031032;28;20061;-80
2022/11/07 14:09:15;;;;;;;;;;;;;;;18.12;51.81;99818.84;5030042;28;20054;-80
2022/11/07 14:11:43;;;;;;;4.25;1.27;;;;;;;17.99;52.49;99815.47;5031553;28;19928;-80
2022/11/07 14:14:11;;;;;;;3.08;1.23;;;;;;;17.86;53.16;99823.31;5032571;28;20057;-80
2022/11/07 14:16:44;;;;;;;3.85;1.33;;;;;;;17.40;54.17;99820.56;5031098;28;20057;-80
2022/11/07 14:19:15;;;;;;;3.75;1.48;;;;;;;17.51;53.83;99823.56;5031430;28;20054;-78
2022/11/07 14:21:45;;;;;;;5.80;1.38;;;;;;;17.36;54.42;99828.13;5024673;28;20053;-77
2022/11/07 14:24:25;;;;;;;3.30;1.38;;;;;;;17.18;54.32;99828.66;5029786;28;20068;-79
2022/11/07 14:27:00;;;;;;;3.00;1.42;;;;;;;17.10;54.48;99831.72;5032269;28;20508;-79
2022/11/07 14:29:31;;;;;;;5.28;1.50;;;;;;;17.17;54.73;99826.19;5030689;28;20501;-79